Time;durP1;ratioP1;P1;durP2;ratioP2;P2;SDS_P1;SDS_P2;PMS_P1;PMS_P2;Temp;Humidity;BMP_temperature;BMP_pressure;BME280_temperature;BME280_humidity;BME280_pressure;Samples;Min_cycle;Max_cycle;Signal;HPM_P1;HPM_P2
2022/10/02 00:01:55;;;;;;;595.10;169.90;;;12.10;1.00;;;;;;6163461;23;20154;-88
2022/10/02 00:04:26;;;;;;;595.73;171.43;;;12.10;99.90;;;;;;6163384;23;20223;-87
2022/10/02 00:06:57;;;;;;;595.03;172.20;;;12.10;99.90;;;;;;6163399;23;20562;-87
2022/10/02 00:09:29;;;;;;;598.27;164.07;;;12.20;99.90;;;;;;6161190;23;20260;-88
2022/10/02 00:12:00;;;;;;;592.13;165.53;;;12.20;1.00;;;;;;6162016;23;20151;-86
2022/10/02 00:14:33;;;;;;;593.47;165.80;;;12.20;1.00;;;;;;6161177;23;20698;-88
2022/10/02 00:17:02;;;;;;;592.83;166.87;;;12.10;1.00;;;;;;6160069;23;20601;-86
2022/10/02 00:19:29;;;;;;;588.77;163.37;;;12.20;99.90;;;;;;6160123;23;20168;-86
2022/10/02 00:22:11;;;;;;;593.40;166.90;;;12.20;1.00;;;;;;6161921;23;20170;-86
2022/10/02 00:24:45;;;;;;;588.47;165.37;;;12.20;1.00;;;;;;6162286;23;20505;-86
2022/10/02 00:27:33;;;;;;;591.30;165.50;;;12.10;99.90;;;;;;6161686;23;20157;-87
2022/10/02 00:30:03;;;;;;;590.20;164.47;;;12.10;99.90;;;;;;6160635;23;20163;-87
2022/10/02 00:32:35;;;;;;;588.00;163.13;;;12.10;24.70;;;;;;6159966;23;20182;-86
2022/10/02 00:35:35;;;;;;;588.43;163.10;;;12.10;56.30;;;;;;6159941;23;20555;-84
2022/10/02 00:38:09;;;;;;;587.40;165.50;;;12.00;1.00;;;;;;6160198;23;20170;-88
2022/10/02 00:41:15;;;;;;;590.77;165.53;;;12.00;1.00;;;;;;6160084;23;20179;-88
2022/10/02 00:43:54;;;;;;;590.73;164.80;;;11.90;1.00;;;;;;6161664;23;20224;-86
2022/10/02 00:46:45;;;;;;;586.80;166.73;;;12.00;23.70;;;;;;6161249;23;20160;-87
2022/10/02 00:49:47;;;;;;;586.23;170.60;;;11.90;12.50;;;;;;6163378;23;20189;-88
2022/10/02 00:52:30;;;;;;;584.33;167.40;;;12.00;1.00;;;;;;6162604;23;20173;-91
2022/10/02 00:55:27;;;;;;;585.37;163.47;;;12.00;1.00;;;;;;6163110;23;20165;-90
2022/10/02 00:58:07;;;;;;;583.90;163.67;;;11.90;99.90;;;;;;6153226;23;20170;-88
2022/10/02 01:00:36;;;;;;;585.37;160.17;;;11.90;99.90;;;;;;6162165;23;20607;-85
2022/10/02 01:03:15;;;;;;;586.83;157.73;;;11.80;99.90;;;;;;6162998;23;20177;-87
2022/10/02 01:05:42;;;;;;;586.00;159.90;;;11.80;99.90;;;;;;6163516;23;20256;-92
2022/10/02 01:08:09;;;;;;;584.10;161.00;;;11.70;1.00;;;;;;6164364;23;20708;-87
2022/10/02 01:10:38;;;;;;;588.00;164.10;;;11.60;1.00;;;;;;6165176;23;20170;-88
2022/10/02 01:13:06;;;;;;;585.60;162.07;;;11.60;1.00;;;;;;6165025;23;20193;-86
2022/10/02 01:15:38;;;;;;;582.37;169.10;;;11.60;1.00;;;;;;6165805;23;20509;-85
2022/10/02 01:18:07;;;;;;;586.20;174.00;;;11.50;99.90;;;;;;6165537;23;20148;-85
2022/10/02 01:20:37;;;;;;;607.20;241.23;;;11.50;91.80;;;;;;6165779;23;20470;-85
2022/10/02 01:23:20;;;;;;;634.60;330.27;;;11.50;1.00;;;;;;6166971;23;20644;-85
2022/10/02 01:25:48;;;;;;;677.30;446.10;;;11.40;1.00;;;;;;6166790;23;20181;-84
2022/10/02 01:28:16;;;;;;;624.70;292.00;;;11.30;1.00;;;;;;6165963;23;20243;-85
2022/10/02 01:30:47;;;;;;;669.13;411.40;;;11.30;1.00;;;;;;6166435;23;20167;-86
2022/10/02 01:33:15;;;;;;;665.77;400.90;;;11.30;1.00;;;;;;6167327;23;20517;-86
2022/10/02 01:35:43;;;;;;;615.70;241.17;;;11.20;27.20;;;;;;6159828;23;20223;-86
2022/10/02 01:38:13;;;;;;;597.50;173.03;;;11.10;1.00;;;;;;6168192;23;20167;-86
2022/10/02 01:40:41;;;;;;;592.83;160.53;;;11.10;90.30;;;;;;6167823;23;20165;-85
2022/10/02 01:43:12;;;;;;;589.97;155.67;;;11.10;99.90;;;;;;6166512;23;20164;-84
2022/10/02 01:45:51;;;;;;;586.27;154.17;;;11.10;99.90;;;;;;6166491;23;20175;-86
2022/10/02 01:48:29;;;;;;;585.53;155.27;;;11.10;99.90;;;;;;6166264;23;20170;-84
2022/10/02 01:51:10;;;;;;;592.87;160.00;;;11.10;99.90;;;;;;6166193;23;20155;-88
2022/10/02 01:53:43;;;;;;;592.57;165.93;;;11.10;1.00;;;;;;6165602;23;20156;-87
2022/10/02 01:56:19;;;;;;;594.13;167.53;;;11.10;1.00;;;;;;6166718;23;20190;-87
2022/10/02 01:58:56;;;;;;;595.03;177.43;;;11.10;1.00;;;;;;6167257;23;20151;-87
2022/10/02 02:01:39;;;;;;;599.33;195.37;;;11.10;1.00;;;;;;6164983;23;20148;-91
2022/10/02 02:04:19;;;;;;;632.57;305.07;;;11.00;1.00;;;;;;6163794;23;20193;-86
2022/10/02 02:06:55;;;;;;;665.57;390.37;;;11.00;1.00;;;;;;6163907;23;20156;-88
2022/10/02 02:09:31;;;;;;;646.53;333.70;;;11.00;99.90;;;;;;6163178;23;20632;-87
2022/10/02 02:12:07;;;;;;;605.80;187.13;;;11.00;70.30;;;;;;6162415;23;20170;-87
2022/10/02 02:14:42;;;;;;;599.57;120.57;;;11.00;99.90;;;;;;6160983;23;20154;-87
2022/10/02 02:17:16;;;;;;;622.20;258.87;;;11.00;52.50;;;;;;6159580;23;20155;-90
2022/10/02 02:19:47;;;;;;;651.77;336.87;;;11.10;1.00;;;;;;6160243;23;20148;-86
2022/10/02 02:22:22;;;;;;;665.67;381.13;;;11.10;99.90;;;;;;6161140;23;20153;-87
2022/10/02 02:24:55;;;;;;;634.43;287.80;;;11.20;1.00;;;;;;6159853;23;20164;-86
2022/10/02 02:27:26;;;;;;;667.73;396.60;;;11.30;1.00;;;;;;6159898;23;20157;-87
2022/10/02 02:30:01;;;;;;;609.00;171.67;;;11.30;99.90;;;;;;6160312;23;20225;-92
2022/10/02 02:32:34;;;;;;;624.00;203.53;;;11.30;1.00;;;;;;6159801;23;20518;-86
2022/10/02 02:35:07;;;;;;;603.53;155.30;;;11.40;1.00;;;;;;6161292;23;20161;-89
2022/10/02 02:37:38;;;;;;;601.60;227.10;;;11.40;99.90;;;;;;6161341;23;20195;-90
2022/10/02 02:40:09;;;;;;;611.50;227.30;;;11.40;99.90;;;;;;6161199;23;20635;-88
2022/10/02 02:42:41;;;;;;;681.00;408.27;;;11.40;99.90;;;;;;6160552;23;20165;-91
2022/10/02 02:45:15;;;;;;;441.97;88.90;;;11.40;1.00;;;;;;6159908;23;20169;-88
2022/10/02 02:47:47;;;;;;;573.37;128.57;;;11.40;99.90;;;;;;6162070;23;20158;-89
2022/10/02 02:50:18;;;;;;;603.53;213.00;;;11.40;99.90;;;;;;6162159;23;20176;-85
2022/10/02 02:52:51;;;;;;;649.53;367.47;;;11.40;1.00;;;;;;6162016;23;20181;-85
2022/10/02 02:55:20;;;;;;;572.57;134.40;;;11.40;99.90;;;;;;6162748;23;20589;-85
2022/10/02 02:57:54;;;;;;;21.67;19.70;;;11.40;99.90;;;;;;6162781;23;20163;-85
2022/10/02 03:00:23;;;;;;;21.33;19.20;;;11.30;1.00;;;;;;6162523;23;20155;-85
2022/10/02 03:02:53;;;;;;;572.77;192.03;;;11.30;1.00;;;;;;6162345;23;20231;-86
2022/10/02 03:05:23;;;;;;;566.63;184.83;;;11.30;99.90;;;;;;6163485;23;20193;-87
2022/10/02 03:07:53;;;;;;;598.03;167.23;;;11.20;99.90;;;;;;6163252;23;20226;-87
2022/10/02 03:10:33;;;;;;;595.20;153.93;;;11.20;1.00;;;;;;6161654;23;20248;-92
2022/10/02 03:13:14;;;;;;;578.07;150.43;;;11.10;1.00;;;;;;6161751;23;20156;-87
2022/10/02 03:15:55;;;;;;;595.13;198.80;;;11.10;99.90;;;;;;6161223;23;20195;-84
2022/10/02 03:18:47;;;;;;;653.17;391.13;;;11.00;99.90;;;;;;6160596;23;20155;-87
2022/10/02 03:21:18;;;;;;;627.17;284.03;;;11.00;1.00;;;;;;6160389;23;20164;-85
2022/10/02 03:23:56;;;;;;;640.67;344.73;;;11.00;1.00;;;;;;6160063;23;20171;-89
2022/10/02 03:26:33;;;;;;;593.63;175.40;;;11.00;1.00;;;;;;6159680;23;20534;-86
2022/10/02 03:29:04;;;;;;;630.10;302.03;;;11.00;1.00;;;;;;6159339;23;20263;-88
2022/10/02 03:31:34;;;;;;;587.77;121.93;;;11.10;6.00;;;;;;6158848;23;20195;-87
2022/10/02 03:34:03;;;;;;;593.63;153.00;;;11.00;1.00;;;;;;6159890;23;20154;-86
2022/10/02 03:36:31;;;;;;;586.63;152.47;;;11.10;1.00;;;;;;6158715;23;20167;-87
2022/10/02 03:39:01;;;;;;;592.33;168.03;;;11.10;1.00;;;;;;6159046;23;20169;-86
2022/10/02 03:41:29;;;;;;;620.60;238.47;;;11.10;1.00;;;;;;6158813;23;20156;-87
2022/10/02 03:43:56;;;;;;;600.17;162.27;;;11.10;99.90;;;;;;6159077;23;20681;-86
2022/10/02 03:46:23;;;;;;;599.97;171.00;;;11.10;1.00;;;;;;6158420;23;20465;-88
2022/10/02 03:48:51;;;;;;;625.30;243.37;;;11.10;1.00;;;;;;6159251;23;20190;-87
2022/10/02 03:51:18;;;;;;;562.30;180.00;;;11.10;99.90;;;;;;6158825;23;20222;-86
2022/10/02 03:53:45;;;;;;;605.53;204.23;;;11.00;1.00;;;;;;6159289;23;20167;-84
2022/10/02 03:56:20;;;;;;;613.90;231.87;;;11.00;92.50;;;;;;6159719;23;20168;-88
2022/10/02 03:58:51;;;;;;;578.20;185.33;;;10.90;1.00;;;;;;6159148;23;20150;-87
2022/10/02 04:01:24;;;;;;;606.73;211.13;;;10.90;1.00;;;;;;6158083;23;20155;-86
2022/10/02 04:03:57;;;;;;;602.83;199.93;;;10.80;99.90;;;;;;6157761;23;20188;-91
2022/10/02 04:06:35;;;;;;;575.63;184.90;;;10.80;99.90;;;;;;6157446;23;20168;-86
2022/10/02 04:09:10;;;;;;;584.83;206.23;;;10.70;1.00;;;;;;6157523;23;20245;-91
2022/10/02 04:11:41;;;;;;;608.87;230.23;;;10.70;1.00;;;;;;6157071;23;20652;-88
2022/10/02 04:14:14;;;;;;;602.97;124.50;;;10.70;99.90;;;;;;6156188;23;20169;-86
2022/10/02 04:16:46;;;;;;;596.60;156.53;;;10.60;1.00;;;;;;6156419;23;20225;-86
2022/10/02 04:19:23;;;;;;;594.90;155.77;;;10.60;1.00;;;;;;6156165;23;20204;-88
2022/10/02 04:21:56;;;;;;;595.27;152.57;;;10.60;47.90;;;;;;6155646;23;20603;-89
2022/10/02 04:24:31;;;;;;;590.60;169.70;;;10.60;1.00;;;;;;6156314;23;20156;-89
2022/10/02 04:27:04;;;;;;;586.93;163.97;;;10.60;99.90;;;;;;6155242;23;20466;-86
2022/10/02 04:29:36;;;;;;;625.47;274.60;;;10.70;1.00;;;;;;6155139;23;20239;-86
2022/10/02 04:32:12;;;;;;;630.30;259.17;;;10.60;1.00;;;;;;6155263;23;20205;-86
2022/10/02 04:34:41;;;;;;;573.03;182.40;;;10.60;99.90;;;;;;6155218;23;20156;-86
2022/10/02 04:37:36;;;;;;;421.10;172.67;;;10.70;1.00;;;;;;6154917;23;20185;-86
2022/10/02 04:40:13;;;;;;;591.90;192.27;;;10.60;1.00;;;;;;6155212;23;20466;-86
2022/10/02 04:42:58;;;;;;;575.87;176.83;;;10.70;1.00;;;;;;6155042;23;20151;-86
2022/10/02 04:45:38;;;;;;;634.57;190.07;;;10.70;99.90;;;;;;6155078;23;20149;-86
2022/10/02 04:48:34;;;;;;;617.77;167.97;;;10.80;99.90;;;;;;6154695;23;20161;-86
2022/10/02 04:51:16;;;;;;;609.40;165.17;;;10.80;1.00;;;;;;6155132;23;20147;-86
2022/10/02 04:54:05;;;;;;;627.33;170.57;;;10.80;99.90;;;;;;6154694;23;20160;-86
2022/10/02 04:56:54;;;;;;;621.20;172.20;;;10.80;99.90;;;;;;6154553;23;20156;-86
2022/10/02 04:59:43;;;;;;;617.33;170.13;;;10.90;1.00;;;;;;6154956;23;20587;-86
2022/10/02 05:02:28;;;;;;;610.13;169.23;;;10.90;1.00;;;;;;6154965;23;20517;-86
2022/10/02 05:05:16;;;;;;;602.07;166.87;;;11.00;1.00;;;;;;6155112;23;20215;-86
2022/10/02 05:08:07;;;;;;;598.97;164.43;;;11.00;1.00;;;;;;6154570;23;20212;-86
2022/10/02 05:10:53;;;;;;;589.83;160.90;;;11.10;1.00;;;;;;6154854;23;20354;-86
2022/10/02 05:13:36;;;;;;;582.83;158.60;;;11.10;99.90;;;;;;6155002;23;20147;-86
2022/10/02 05:16:37;;;;;;;581.77;159.07;;;11.10;99.90;;;;;;6154220;23;20600;-90
2022/10/02 05:19:48;;;;;;;580.73;157.03;;;11.20;99.90;;;;;;6155434;23;20524;-90
2022/10/02 05:22:45;;;;;;;583.67;154.17;;;11.20;1.00;;;;;;6155335;23;20165;-87
2022/10/02 05:25:34;;;;;;;581.27;159.57;;;11.30;78.80;;;;;;6154015;23;20234;-89
2022/10/02 05:28:21;;;;;;;592.10;195.93;;;11.30;5.70;;;;;;6156849;23;20189;-90
2022/10/02 05:30:54;;;;;;;584.73;160.07;;;11.40;1.00;;;;;;6156280;23;20188;-87
2022/10/02 05:33:59;;;;;;;;;;;;;;;;;;;;;
2022/10/02 05:37:05;;;;;;;588.60;165.90;;;11.50;99.90;;;;;;6160167;23;20165;-86
2022/10/02 05:39:36;;;;;;;591.83;159.30;;;11.50;1.00;;;;;;6111763;23;20253;-88
2022/10/02 05:42:18;;;;;;;578.57;169.40;;;11.50;1.00;;;;;;6161305;23;20524;-86
2022/10/02 05:45:07;;;;;;;588.13;186.83;;;11.50;99.90;;;;;;6158509;23;20154;-88
2022/10/02 05:47:51;;;;;;;649.00;202.00;;;11.60;99.90;;;;;;6158578;23;20169;-90
2022/10/02 05:51:06;;;;;;;;;;;;;;;;;;;;;
2022/10/02 05:53:44;;;;;;;597.80;172.83;;;11.60;1.00;;;;;;6157213;23;20163;-88
2022/10/02 05:56:35;;;;;;;601.53;175.47;;;11.70;99.90;;;;;;6157421;23;20157;-88
2022/10/02 05:59:45;;;;;;;596.60;168.40;;;11.70;1.00;;;;;;6157531;23;20163;-89
2022/10/02 06:02:53;;;;;;;613.33;182.97;;;11.70;99.90;;;;;;6157934;23;20172;-87
2022/10/02 06:06:04;;;;;;;;;;;;;;;;;;;;;
2022/10/02 06:11:45;;;;;;;607.57;173.30;;;11.80;99.90;;;;;;6155842;23;20172;-87
2022/10/02 06:14:21;;;;;;;606.20;183.60;;;11.80;99.90;;;;;;6158789;23;20213;-88
2022/10/02 06:17:02;;;;;;;585.77;171.73;;;11.80;99.90;;;;;;6159759;23;20156;-91
2022/10/02 06:20:05;;;;;;;597.53;185.60;;;11.80;99.90;;;;;;6161066;23;20164;-89
2022/10/02 06:22:48;;;;;;;616.47;200.97;;;11.90;99.90;;;;;;6131828;23;20170;-89
2022/10/02 06:25:39;;;;;;;598.57;211.47;;;11.90;1.00;;;;;;6160465;23;20173;-90
2022/10/02 06:28:28;;;;;;;592.07;186.80;;;12.00;99.90;;;;;;6159109;23;20249;-89
2022/10/02 06:31:13;;;;;;;634.33;300.53;;;12.00;99.90;;;;;;6180343;23;20202;-89
2022/10/02 06:33:49;;;;;;;622.40;221.57;;;12.00;99.90;;;;;;6181707;23;20183;-90
2022/10/02 06:36:48;;;;;;;599.30;178.47;;;12.10;99.90;;;;;;6181041;23;20155;-90
2022/10/02 06:39:38;;;;;;;612.50;224.47;;;12.20;99.90;;;;;;6139358;23;20231;-90
2022/10/02 06:42:23;;;;;;;602.57;177.17;;;12.30;99.90;;;;;;6163354;23;20167;-90
2022/10/02 06:44:59;;;;;;;615.70;184.00;;;12.40;1.00;;;;;;6157758;23;20242;-89
2022/10/02 06:47:47;;;;;;;615.83;190.10;;;12.60;1.00;;;;;;6157462;23;20162;-88
2022/10/02 06:50:27;;;;;;;612.77;187.00;;;12.70;1.00;;;;;;6157439;23;20182;-87
2022/10/02 06:53:00;;;;;;;599.00;187.13;;;12.80;1.10;;;;;;6158068;23;20190;-87
2022/10/02 06:55:41;;;;;;;602.40;188.67;;;12.80;99.90;;;;;;6159899;23;20144;-85
2022/10/02 06:58:36;;;;;;;603.63;192.27;;;12.90;99.90;;;;;;6180538;23;20141;-90
2022/10/02 07:01:18;;;;;;;605.23;193.87;;;12.90;1.00;;;;;;6183592;23;20172;-91
2022/10/02 07:14:30;;;;;;;589.50;192.37;;;12.90;47.60;;;;;;5883018;24;20184;-90
2022/10/02 07:17:32;;;;;;;628.23;326.60;;;13.00;1.00;;;;;;5978415;24;20199;-91
2022/10/02 07:23:53;;;;;;;610.90;220.93;;;13.00;1.00;;;;;;6161912;23;20222;-88
2022/10/02 07:26:52;;;;;;;595.73;184.50;;;13.00;99.90;;;;;;6183441;23;20167;-88
2022/10/02 07:29:44;;;;;;;632.83;205.93;;;13.00;99.90;;;;;;6183206;23;20172;-87
2022/10/02 07:32:48;;;;;;;608.63;196.50;;;13.00;99.90;;;;;;6182073;23;20164;-89
2022/10/02 07:35:39;;;;;;;601.93;191.30;;;13.10;99.90;;;;;;6181514;23;20163;-90
2022/10/02 07:38:43;;;;;;;599.13;191.47;;;13.20;96.50;;;;;;6163247;23;20168;-90
2022/10/02 07:41:57;;;;;;;595.97;188.60;;;13.20;1.00;;;;;;6177919;23;20168;-90
2022/10/02 07:44:49;;;;;;;607.53;212.07;;;13.30;1.00;;;;;;6125504;23;20174;-90
2022/10/02 07:47:46;;;;;;;610.70;240.90;;;13.20;1.00;;;;;;6180149;23;20147;-88
2022/10/02 07:50:36;;;;;;;605.87;217.70;;;13.40;99.90;;;;;;6168149;23;20175;-90
2022/10/02 07:53:20;;;;;;;607.87;227.10;;;13.80;1.00;;;;;;6161638;23;20206;-89
2022/10/02 07:55:57;;;;;;;617.47;250.90;;;14.40;55.90;;;;;;6159214;23;20191;-90
2022/10/02 07:58:38;;;;;;;654.50;313.20;;;15.00;1.00;;;;;;6161541;23;20203;-90
2022/10/02 08:01:11;;;;;;;;;;;15.60;93.30;;;;;;6159016;23;20136;-91
2022/10/02 08:04:00;;;;;;;;;;;16.60;1.00;;;;;;6162623;23;20320;-89
2022/10/02 08:06:27;;;;;;;;;;;17.70;16.20;;;;;;6161274;23;19917;-88
2022/10/02 08:08:56;;;;;;;;;;;18.70;51.00;;;;;;6155814;23;19924;-88
2022/10/02 08:11:27;;;;;;;;;;;18.90;99.90;;;;;;6155308;23;19916;-90
2022/10/02 08:13:57;;;;;;;;;;;18.70;1.00;;;;;;6155993;23;19987;-90
2022/10/02 08:16:27;;;;;;;;;;;18.20;1.00;;;;;;6155571;23;20391;-89
2022/10/02 08:18:56;;;;;;;;;;;17.90;1.00;;;;;;6155986;23;19916;-89
2022/10/02 08:21:24;;;;;;;;;;;17.90;1.00;;;;;;6156014;23;19917;-89
2022/10/02 08:23:54;;;;;;;;;;;17.70;1.00;;;;;;6155880;23;19917;-91
2022/10/02 08:26:26;;;;;;;;;;;17.60;1.00;;;;;;6156181;23;19917;-91
2022/10/02 08:29:06;;;;;;;;;;;17.30;1.00;;;;;;6171755;23;19920;-91
2022/10/02 08:31:38;;;;;;;;;;;17.00;1.00;;;;;;6182333;23;19917;-92
2022/10/02 08:34:12;;;;;;;;;;;16.70;1.00;;;;;;6175302;23;20232;-88
2022/10/02 08:36:46;;;;;;;;;;;16.80;1.00;;;;;;6155128;23;19916;-87
2022/10/02 08:39:26;;;;;;;;;;;17.40;1.00;;;;;;6155617;23;19917;-88
2022/10/02 08:42:10;;;;;;;;;;;17.40;1.00;;;;;;6155303;23;19917;-88
2022/10/02 08:45:02;;;;;;;;;;;17.50;1.00;;;;;;6142839;23;20239;-89
2022/10/02 08:47:54;;;;;;;;;;;17.60;1.00;;;;;;6140234;23;20286;-89
2022/10/02 08:50:38;;;;;;;;;;;18.30;1.00;;;;;;6155522;23;19917;-88
2022/10/02 08:53:21;;;;;;;;;;;18.90;1.00;;;;;;6155191;23;19964;-89
2022/10/02 08:55:54;;;;;;;;;;;19.70;1.00;;;;;;6155605;23;20288;-92
2022/10/02 08:58:36;;;;;;;;;;;20.30;1.00;;;;;;6167945;23;19916;-89
2022/10/02 09:07:19;;;;;;;;;;;21.90;1.00;;;;;;6131373;23;19917;-91
2022/10/02 09:16:22;;;;;;;;;;;21.70;1.00;;;;;;6143292;23;19917;-88
2022/10/02 09:19:02;;;;;;;;;;;22.30;1.00;;;;;;6130047;23;19917;-91
2022/10/02 09:31:34;;;;;;;;;;;21.50;1.00;;;;;;6016742;23;19920;-91
2022/10/02 09:34:17;;;;;;;;;;;20.80;1.00;;;;;;6143732;23;19913;-91
2022/10/02 09:43:26;;;;;;;;;;;20.00;1.00;;;;;;6110960;23;19925;-90
2022/10/02 09:46:05;;;;;;;;;;;19.90;1.00;;;;;;6127158;23;20325;-90
2022/10/02 09:48:59;;;;;;;;;;;19.90;1.00;;;;;;6137681;23;19917;-91
2022/10/02 09:51:55;;;;;;;;;;;20.00;1.00;;;;;;6137471;23;19928;-92
2022/10/02 09:54:53;;;;;;;;;;;20.10;1.00;;;;;;6138755;23;19925;-89
2022/10/02 10:13:25;;;;;;;;;;;19.50;1.00;;;;;;6109443;23;19917;-89
2022/10/02 10:16:18;;;;;;;;;;;19.60;1.00;;;;;;6126970;23;19976;-91
2022/10/02 10:19:01;;;;;;;;;;;19.60;1.00;;;;;;6138442;23;19912;-90
2022/10/02 10:21:49;;;;;;;;;;;19.60;1.00;;;;;;6127391;23;19916;-90
2022/10/02 10:24:34;;;;;;;;;;;19.50;1.00;;;;;;6127448;23;20280;-89
2022/10/02 10:27:20;;;;;;;;;;;19.40;1.00;;;;;;6127147;23;20333;-88
2022/10/02 10:30:17;;;;;;;;;;;19.40;1.00;;;;;;6127256;23;19917;-87
2022/10/02 10:33:04;;;;;;;;;;;19.20;1.00;;;;;;6066524;23;19922;-91
2022/10/02 10:35:43;;;;;;;;;;;19.00;1.00;;;;;;6121775;23;19921;-88
2022/10/02 10:38:31;;;;;;;;;;;18.70;1.00;;;;;;6126632;23;20280;-90
2022/10/02 10:41:04;;;;;;;;;;;18.60;1.00;;;;;;6142275;23;20287;-87
2022/10/02 10:43:51;;;;;;;;;;;18.50;1.00;;;;;;6133888;23;19917;-88
2022/10/02 10:46:40;;;;;;;;;;;18.30;1.00;;;;;;6126002;23;20313;-87
2022/10/02 10:49:26;;;;;;;;;;;18.20;1.00;;;;;;6139342;23;19923;-91
2022/10/02 10:52:02;;;;;;;;;;;18.20;1.00;;;;;;6143679;23;19924;-88
2022/10/02 10:54:47;;;;;;;;;;;18.20;1.00;;;;;;6140576;23;19905;-87
2022/10/02 10:57:22;;;;;;;;;;;18.20;1.00;;;;;;6137608;23;19940;-87
2022/10/02 11:03:04;;;;;;;;;;;18.10;1.00;;;;;;6143413;23;19912;-87
2022/10/02 11:05:50;;;;;;;;;;;18.20;1.00;;;;;;6139848;23;19917;-90
2022/10/02 11:08:37;;;;;;;;;;;18.30;1.00;;;;;;6121279;23;19921;-89
2022/10/02 11:11:11;;;;;;;;;;;18.30;1.00;;;;;;6136930;23;19958;-86
2022/10/02 11:13:54;;;;;;;;;;;18.20;1.00;;;;;;6141262;23;19917;-92
2022/10/02 11:16:30;;;;;;;;;;;18.20;1.00;;;;;;6151627;23;19927;-92
2022/10/02 11:19:14;;;;;;;;;;;18.20;1.00;;;;;;6144033;23;19917;-90
2022/10/02 11:22:07;;;;;;;;;;;18.10;1.00;;;;;;6144680;23;19916;-90
2022/10/02 11:24:49;;;;;;;;;;;17.90;1.00;;;;;;6138986;23;19924;-89
2022/10/02 11:27:32;;;;;;;;;;;17.90;1.00;;;;;;6140810;23;19940;-91
2022/10/02 11:30:19;;;;;;;;;;;17.90;1.00;;;;;;6137506;23;19948;-90
2022/10/02 11:33:04;;;;;;;;;;;17.90;1.00;;;;;;6139748;23;19923;-90
2022/10/02 11:35:49;;;;;;;;;;;18.00;1.00;;;;;;6127213;23;19921;-89
2022/10/02 11:38:53;;;;;;;;;;;17.90;1.00;;;;;;6125411;23;20018;-88
2022/10/02 11:41:45;;;;;;;;;;;17.90;1.00;;;;;;6126689;23;19988;-89
2022/10/02 11:44:43;;;;;;;;;;;17.80;1.00;;;;;;6126736;23;20414;-91
2022/10/02 11:50:50;;;;;;;;;;;17.70;1.00;;;;;;6124675;23;19923;-90
2022/10/02 11:56:40;;;;;;;;;;;17.80;1.00;;;;;;6059767;23;19918;-92
2022/10/02 12:08:45;;;;;;;;;;;17.70;1.00;;;;;;6126651;23;19921;-88
2022/10/02 12:36:27;;;;;;;;;;;;;;;;;;;;;
2022/10/02 12:39:02;;;;;;;;;;;17.90;1.00;;;;;;6053890;23;19949;-86
2022/10/02 12:41:41;;;;;;;;;;;17.90;1.00;;;;;;6094013;23;19923;-86
2022/10/02 12:44:27;;;;;;;;;;;17.90;1.00;;;;;;6105687;23;19917;-86
2022/10/02 12:47:14;;;;;;;;;;;17.90;1.00;;;;;;6125466;23;19921;-87
2022/10/02 12:49:47;;;;;;;;;;;18.00;1.00;;;;;;6088376;23;20221;-85
2022/10/02 12:52:29;;;;;;;;;;;18.10;1.00;;;;;;6125657;23;20206;-84
2022/10/02 12:55:13;;;;;;;;;;;18.20;1.00;;;;;;6125458;23;19964;-85
2022/10/02 12:57:51;;;;;;;;;;;18.30;1.00;;;;;;6125804;23;19921;-85
2022/10/02 13:00:19;;;;;;;;;;;18.20;1.00;;;;;;6125914;23;19921;-85
2022/10/02 13:03:13;;;;;;;;;;;18.10;1.00;;;;;;6125693;23;19968;-85
2022/10/02 13:06:02;;;;;;;;;;;18.20;1.00;;;;;;6125816;23;19972;-86
2022/10/02 13:08:45;;;;;;;;;;;18.30;1.00;;;;;;6125633;23;19924;-85
2022/10/02 13:11:18;;;;;;;;;;;18.30;1.00;;;;;;6125422;23;20400;-86
2022/10/02 13:13:56;;;;;;;;;;;18.30;1.00;;;;;;6128702;23;19916;-84
2022/10/02 13:16:29;;;;;;;;;;;18.20;1.00;;;;;;6125497;23;19921;-84
2022/10/02 13:19:08;;;;;;;;;;;18.10;1.00;;;;;;6125101;23;20332;-85
2022/10/02 13:21:41;;;;;;;;;;;18.00;1.00;;;;;;6129614;23;19919;-87
2022/10/02 13:24:26;;;;;;;;;;;18.00;1.00;;;;;;6138001;23;19917;-86
2022/10/02 13:26:57;;;;;;;;;;;18.00;1.00;;;;;;6125111;23;19917;-84
2022/10/02 13:29:30;;;;;;;;;;;18.20;1.00;;;;;;6127782;23;19983;-86
2022/10/02 13:32:08;;;;;;;;;;;18.30;1.00;;;;;;6125250;23;19984;-85
2022/10/02 13:34:50;;;;;;;;;;;18.40;1.00;;;;;;6125328;23;20281;-85
2022/10/02 13:37:21;;;;;;;;;;;18.50;1.00;;;;;;6125082;23;20202;-87
2022/10/02 13:39:55;;;;;;;;;;;18.50;1.00;;;;;;6125482;23;20369;-87
2022/10/02 13:42:29;;;;;;;;;;;18.40;1.00;;;;;;6125878;23;19917;-87
2022/10/02 13:45:00;;;;;;;;;;;18.20;1.00;;;;;;6125334;23;19917;-87
2022/10/02 13:47:38;;;;;;;;;;;18.10;1.00;;;;;;6125126;23;19917;-88
2022/10/02 13:50:20;;;;;;;;;;;18.00;1.00;;;;;;6125294;23;20391;-87
2022/10/02 13:52:53;;;;;;;;;;;18.00;1.00;;;;;;6122399;23;19917;-87
2022/10/02 13:55:22;;;;;;;;;;;17.90;1.00;;;;;;6126720;23;19917;-87
2022/10/02 13:58:10;;;;;;;;;;;17.70;1.00;;;;;;6127056;23;19973;-87
2022/10/02 14:01:12;;;;;;;608.40;204.07;;;17.60;1.00;;;;;;6088969;23;20055;-89
2022/10/02 14:04:03;;;;;;;620.07;323.90;;;17.40;1.00;;;;;;6094586;23;20167;-88
2022/10/02 14:06:35;;;;;;;687.03;456.43;;;17.30;1.00;;;;;;6127235;23;20230;-87
2022/10/02 14:09:33;;;;;;;681.30;421.73;;;17.10;1.00;;;;;;6127119;23;20191;-88
2022/10/02 14:12:15;;;;;;;666.70;349.77;;;16.90;1.00;;;;;;6110279;23;20646;-90
2022/10/02 14:15:00;;;;;;;599.30;244.63;;;16.80;1.00;;;;;;6136431;23;20493;-87
2022/10/02 14:17:35;;;;;;;662.07;338.53;;;16.80;1.00;;;;;;6126303;23;20159;-88
2022/10/02 14:20:41;;;;;;;620.70;202.30;;;16.80;1.00;;;;;;6142409;23;20159;-90
2022/10/02 14:23:29;;;;;;;645.17;322.00;;;17.00;1.00;;;;;;6077826;23;20184;-89
2022/10/02 14:26:13;;;;;;;635.07;203.10;;;17.00;1.00;;;;;;6078026;23;20149;-88
2022/10/02 14:32:50;;;;;;;590.23;179.20;;;17.10;1.00;;;;;;6080682;23;20243;-90
2022/10/02 14:36:33;;;;;;;583.93;229.37;;;17.10;1.00;;;;;;6093016;23;20177;-92
2022/10/02 14:39:22;;;;;;;571.60;220.00;;;17.00;1.00;;;;;;6005798;24;20158;-92
2022/10/02 14:42:17;;;;;;;568.17;233.17;;;17.00;1.00;;;;;;6007751;23;20166;-91
2022/10/02 14:45:17;;;;;;;584.50;278.70;;;17.00;1.00;;;;;;5993994;24;20289;-89
2022/10/02 14:48:32;;;;;;;584.07;264.00;;;17.00;1.00;;;;;;5994023;24;20659;-93
2022/10/02 14:54:59;;;;;;;580.37;271.33;;;17.10;1.00;;;;;;6051985;23;20170;-88
2022/10/02 14:58:00;;;;;;;586.83;269.47;;;17.10;1.00;;;;;;6136648;23;20158;-91
2022/10/02 15:00:37;;;;;;;418.53;189.07;;;17.00;1.00;;;;;;6134838;23;20156;-87
2022/10/02 15:03:36;;;;;;;581.53;232.70;;;16.90;1.00;;;;;;6141986;23;20179;-91
2022/10/02 15:06:22;;;;;;;658.80;308.17;;;16.90;1.00;;;;;;6149482;23;20146;-90
2022/10/02 15:08:58;;;;;;;756.63;325.67;;;16.90;1.00;;;;;;6141553;23;20147;-86
2022/10/02 15:11:48;;;;;;;685.53;350.30;;;16.80;1.00;;;;;;6126105;23;20161;-86
2022/10/02 15:14:19;;;;;;;685.73;341.87;;;16.70;1.00;;;;;;6129720;23;20076;-87
2022/10/02 15:36:42;;;;;;;650.97;247.83;;;15.30;1.00;;;;;;5126116;27;20986;-90
2022/10/02 19:33:08;;;;;;;637.73;219.00;;;9.40;1.00;;;;;;5089911;28;20037;-87
2022/10/02 19:35:41;;;;;;;;;;;10.60;1.00;;;;;;5090730;28;20193;-88
2022/10/02 19:38:34;;;;;;;607.60;192.67;;;10.80;1.00;;;;;;5111955;28;20022;-91
2022/10/02 19:41:25;;;;;;;599.57;174.80;;;10.90;99.90;;;;;;5114350;28;20208;-88
2022/10/02 19:44:13;;;;;;;596.83;173.23;;;11.00;99.90;;;;;;5114356;28;20200;-90
2022/10/02 19:46:51;;;;;;;590.50;165.40;;;11.10;99.90;;;;;;5113205;28;20282;-91
2022/10/02 19:49:39;;;;;;;590.63;157.43;;;11.00;99.90;;;;;;5098399;28;20210;-90
2022/10/02 19:52:42;;;;;;;601.67;160.07;;;11.00;1.00;;;;;;5083217;28;20214;-87
2022/10/02 19:55:22;;;;;;;594.27;159.77;;;11.00;1.00;;;;;;5087180;28;20554;-88
2022/10/02 19:57:52;;;;;;;591.37;153.37;;;11.00;1.00;;;;;;5089769;28;20321;-88
2022/10/02 20:00:20;;;;;;;594.37;157.93;;;11.00;1.00;;;;;;5089585;28;20198;-87
2022/10/02 20:02:48;;;;;;;582.93;153.07;;;10.90;99.90;;;;;;5088657;28;20197;-87
2022/10/02 20:05:24;;;;;;;583.67;161.13;;;10.90;1.00;;;;;;5076175;28;20597;-88
2022/10/02 20:07:56;;;;;;;581.40;155.27;;;10.90;99.90;;;;;;5079447;28;20193;-88
2022/10/02 20:10:30;;;;;;;584.67;161.67;;;10.90;99.90;;;;;;5089824;28;20193;-87
2022/10/02 20:13:05;;;;;;;583.30;162.53;;;10.90;1.00;;;;;;5089644;28;20201;-87
2022/10/02 20:18:23;;;;;;;585.87;159.53;;;10.80;99.90;;;;;;5089727;28;20198;-86
2022/10/02 20:20:55;;;;;;;581.07;159.43;;;10.70;1.00;;;;;;5084451;28;20280;-87